Time;durP1;ratioP1;P1;durP2;ratioP2;P2;SDS_P1;SDS_P2;PMS_P1;PMS_P2;Temp;Humidity;BMP_temperature;BMP_pressure;BME280_temperature;BME280_humidity;BME280_pressure;Samples;Min_cycle;Max_cycle;Signal;HPM_P1;HPM_P2
2021/04/23 00:01:14;;;;;;;1999.90;999.90;;;6.50;99.90;;;;;;5024107;28;20200;-81
2021/04/23 00:03:43;;;;;;;1999.90;999.90;;;6.40;99.90;;;;;;5036484;28;20196;-81
2021/04/23 00:06:31;;;;;;;1999.90;999.90;;;6.40;99.90;;;;;;5041134;28;20168;-81
2021/04/23 00:09:11;;;;;;;1999.90;999.90;;;6.30;99.90;;;;;;5046136;28;20181;-81
2021/04/23 00:11:56;;;;;;;1999.90;999.90;;;6.20;99.90;;;;;;5099840;28;20544;-80
2021/04/23 00:14:29;;;;;;;1999.90;999.90;;;6.20;99.90;;;;;;5099243;28;20627;-80
2021/04/23 00:16:55;;;;;;;1999.90;999.90;;;6.20;99.90;;;;;;5100891;28;20226;-81
2021/04/23 00:19:23;;;;;;;1999.90;999.90;;;6.10;99.90;;;;;;5099040;28;20171;-80
2021/04/23 00:21:49;;;;;;;1999.90;999.90;;;6.10;99.90;;;;;;5099133;28;20174;-80
2021/04/23 00:24:16;;;;;;;1999.90;999.90;;;6.00;99.90;;;;;;5099888;28;20196;-80
2021/04/23 00:26:42;;;;;;;1999.90;999.90;;;5.90;99.90;;;;;;5099818;28;20693;-80
2021/04/23 00:29:08;;;;;;;1999.90;999.90;;;6.00;99.90;;;;;;5098873;28;20198;-80
2021/04/23 00:31:35;;;;;;;1999.90;999.90;;;5.90;99.90;;;;;;5099977;28;20182;-80
2021/04/23 00:34:01;;;;;;;1999.90;999.90;;;5.80;99.90;;;;;;5098758;28;20172;-80
2021/04/23 00:36:27;;;;;;;1999.90;999.90;;;5.70;99.90;;;;;;5099649;28;20159;-80
2021/04/23 00:38:52;;;;;;;1999.90;999.90;;;5.70;99.90;;;;;;5099490;28;20402;-80
2021/04/23 00:41:26;;;;;;;1999.90;999.90;;;5.50;99.90;;;;;;5099570;28;20174;-80
2021/04/23 00:43:58;;;;;;;1999.90;999.90;;;5.50;99.90;;;;;;5099694;28;20143;-80
2021/04/23 00:46:27;;;;;;;1999.90;999.90;;;5.50;99.90;;;;;;5099111;28;20673;-80
2021/04/23 00:48:53;;;;;;;1999.90;999.90;;;5.50;99.90;;;;;;5099076;28;20167;-80
2021/04/23 00:51:32;;;;;;;1999.90;999.90;;;5.60;99.90;;;;;;5098641;28;20187;-80
2021/04/23 00:54:00;;;;;;;1999.90;999.90;;;5.50;99.90;;;;;;5099037;28;20152;-80
2021/04/23 00:56:30;;;;;;;1999.90;999.90;;;5.50;99.90;;;;;;5096458;28;20170;-80
2021/04/23 00:58:57;;;;;;;1999.90;999.90;;;5.50;99.90;;;;;;5093399;28;20168;-80
2021/04/23 01:01:32;;;;;;;1999.90;999.90;;;5.40;99.90;;;;;;5096309;28;20588;-80
2021/04/23 01:03:58;;;;;;;1999.90;999.90;;;5.40;99.90;;;;;;5097253;28;20151;-80
2021/04/23 01:06:29;;;;;;;1999.90;999.90;;;5.40;99.90;;;;;;5095819;28;20631;-80
2021/04/23 01:09:11;;;;;;;1999.90;999.90;;;5.40;99.90;;;;;;5097299;28;20151;-80
2021/04/23 01:11:38;;;;;;;1999.90;999.90;;;5.40;99.90;;;;;;5096145;28;20206;-80
2021/04/23 01:14:04;;;;;;;1999.90;999.90;;;5.30;99.90;;;;;;5097281;28;20183;-80
2021/04/23 01:16:30;;;;;;;1999.90;999.90;;;5.30;99.90;;;;;;5097371;28;20254;-80
2021/04/23 01:18:57;;;;;;;1999.90;999.90;;;5.30;99.90;;;;;;5096984;28;20155;-80
2021/04/23 01:21:29;;;;;;;1999.90;999.90;;;5.30;99.90;;;;;;5093822;28;20228;-80
2021/04/23 01:23:57;;;;;;;1999.90;999.90;;;5.20;99.90;;;;;;5083707;28;20164;-80
2021/04/23 01:26:26;;;;;;;1999.90;999.90;;;5.20;99.90;;;;;;5083610;28;20171;-80
2021/04/23 01:28:55;;;;;;;1999.90;999.90;;;5.20;99.90;;;;;;5081926;28;20240;-80
2021/04/23 01:31:24;;;;;;;1999.90;999.90;;;5.20;99.90;;;;;;5083208;28;20188;-80
2021/04/23 01:33:54;;;;;;;1999.90;999.90;;;5.20;99.90;;;;;;5081410;28;20163;-80
2021/04/23 01:36:20;;;;;;;1999.90;999.90;;;5.20;99.90;;;;;;5082623;28;20163;-80
2021/04/23 01:38:48;;;;;;;1999.90;999.90;;;5.30;99.90;;;;;;5081290;28;20160;-80
2021/04/23 01:41:15;;;;;;;1999.90;999.90;;;5.30;99.90;;;;;;5083663;28;20474;-80
2021/04/23 01:43:41;;;;;;;1999.90;999.90;;;5.40;99.90;;;;;;5081733;28;20172;-80
2021/04/23 01:46:08;;;;;;;1999.90;999.90;;;5.40;99.90;;;;;;5083501;28;20531;-80
2021/04/23 01:48:34;;;;;;;1999.90;999.90;;;5.30;99.90;;;;;;5087548;28;20187;-80
2021/04/23 01:51:05;;;;;;;1999.90;999.90;;;5.30;99.90;;;;;;5085500;28;20191;-80
2021/04/23 01:53:31;;;;;;;1999.90;999.90;;;5.20;99.90;;;;;;5083886;28;20159;-80
2021/04/23 01:55:57;;;;;;;1999.90;999.90;;;5.10;99.90;;;;;;5083633;28;20159;-80
2021/04/23 01:58:22;;;;;;;1999.90;999.90;;;5.00;99.90;;;;;;5083388;28;20203;-80
2021/04/23 02:00:51;;;;;;;1999.90;999.90;;;5.00;99.90;;;;;;5151950;22;20186;-81
2021/04/23 02:03:17;;;;;;;1999.90;999.90;;;4.90;99.90;;;;;;5038409;28;20496;-82
2021/04/23 02:05:44;;;;;;;1999.90;999.90;;;4.90;99.90;;;;;;5039873;28;20174;-82
2021/04/23 02:08:13;;;;;;;1999.90;999.90;;;4.80;99.90;;;;;;5039072;28;20243;-82
2021/04/23 02:10:44;;;;;;;1999.90;999.90;;;4.70;99.90;;;;;;5039683;28;20247;-82
2021/04/23 02:13:10;;;;;;;1999.90;999.90;;;4.70;99.90;;;;;;5040168;28;20149;-82
2021/04/23 02:15:36;;;;;;;1999.90;999.90;;;4.60;99.90;;;;;;5021515;28;20172;-82
2021/04/23 02:18:03;;;;;;;1999.90;999.90;;;4.50;99.90;;;;;;5039477;28;20181;-82
2021/04/23 02:20:31;;;;;;;1999.90;999.90;;;4.40;99.90;;;;;;5039694;28;20513;-82
2021/04/23 02:22:59;;;;;;;1999.90;999.90;;;4.40;99.90;;;;;;5039133;28;20636;-81
2021/04/23 02:25:26;;;;;;;1999.90;999.90;;;4.30;99.90;;;;;;5039134;28;20653;-82
2021/04/23 02:27:52;;;;;;;1999.90;999.90;;;4.30;99.90;;;;;;5039961;28;20189;-82
2021/04/23 02:30:30;;;;;;;1999.90;999.90;;;4.20;99.90;;;;;;5038685;28;20224;-82
2021/04/23 02:32:56;;;;;;;1999.90;999.90;;;4.20;99.90;;;;;;5020933;28;20204;-82
2021/04/23 02:35:23;;;;;;;1999.90;999.90;;;4.20;99.90;;;;;;5038182;28;20172;-82
2021/04/23 02:37:50;;;;;;;1999.90;999.90;;;4.20;99.90;;;;;;5039123;28;20683;-82
2021/04/23 02:40:21;;;;;;;1999.90;999.90;;;4.20;99.90;;;;;;5038909;28;20169;-82
2021/04/23 02:42:51;;;;;;;1999.90;999.90;;;4.20;99.90;;;;;;5039504;28;20157;-82
2021/04/23 02:45:20;;;;;;;1999.90;999.90;;;4.10;99.90;;;;;;5038689;28;20232;-82
2021/04/23 02:47:47;;;;;;;1999.90;999.90;;;4.10;99.90;;;;;;5039191;28;20189;-82
2021/04/23 02:50:15;;;;;;;1999.90;999.90;;;4.10;99.90;;;;;;5038879;28;20191;-82
2021/04/23 02:52:40;;;;;;;1999.90;999.90;;;4.00;99.90;;;;;;5020531;28;20184;-82
2021/04/23 02:55:08;;;;;;;1999.90;999.90;;;4.00;99.90;;;;;;5020883;28;20161;-82
2021/04/23 02:57:34;;;;;;;1999.90;999.90;;;3.90;99.90;;;;;;5038521;28;20212;-82
2021/04/23 02:59:59;;;;;;;1999.90;999.90;;;3.80;99.90;;;;;;5020872;28;20177;-82
2021/04/23 03:02:25;;;;;;;1999.90;999.90;;;3.90;99.90;;;;;;5038189;28;20263;-82
2021/04/23 03:04:51;;;;;;;1999.90;999.90;;;3.90;99.90;;;;;;5038058;28;20172;-82
2021/04/23 03:07:20;;;;;;;1999.90;999.90;;;3.90;99.90;;;;;;5038172;28;20444;-82
2021/04/23 03:09:48;;;;;;;1999.90;999.90;;;3.80;99.90;;;;;;5020391;28;20434;-82
2021/04/23 03:12:14;;;;;;;1999.90;999.90;;;3.80;99.90;;;;;;5038817;28;20215;-82
2021/04/23 03:14:40;;;;;;;1999.90;999.90;;;3.80;99.90;;;;;;5038357;28;20161;-82
2021/04/23 03:17:05;;;;;;;1999.90;999.90;;;3.80;99.90;;;;;;5038866;28;20644;-82
2021/04/23 03:19:31;;;;;;;1999.90;999.90;;;4.00;99.90;;;;;;5038139;28;20196;-82
2021/04/23 03:21:59;;;;;;;1999.90;999.90;;;3.90;99.90;;;;;;5037819;28;20587;-82
2021/04/23 03:24:24;;;;;;;1999.90;999.90;;;3.90;99.90;;;;;;5038027;28;20929;-82
2021/04/23 03:26:50;;;;;;;1999.90;999.90;;;3.80;99.90;;;;;;5038361;28;20193;-82
2021/04/23 03:29:17;;;;;;;1999.90;999.90;;;3.80;99.90;;;;;;5037946;28;20544;-82
2021/04/23 03:31:43;;;;;;;1999.90;999.90;;;3.70;99.90;;;;;;5038591;28;20189;-82
2021/04/23 03:34:10;;;;;;;1999.90;999.90;;;3.70;99.90;;;;;;5020671;28;20220;-82
2021/04/23 03:36:35;;;;;;;1999.90;999.90;;;3.70;99.90;;;;;;5038087;28;20534;-82
2021/04/23 03:39:03;;;;;;;1999.90;999.90;;;3.70;99.90;;;;;;5038219;28;20276;-82
2021/04/23 03:41:31;;;;;;;1999.90;999.90;;;3.70;99.90;;;;;;5037732;28;20476;-82
2021/04/23 03:43:57;;;;;;;1999.90;999.90;;;3.60;99.90;;;;;;5038046;28;20520;-82
2021/04/23 03:46:24;;;;;;;1999.90;999.90;;;3.60;99.90;;;;;;5037256;28;20171;-82
2021/04/23 03:48:50;;;;;;;1999.90;999.90;;;3.50;99.90;;;;;;5037510;28;20184;-82
2021/04/23 03:51:19;;;;;;;1999.90;999.90;;;3.50;99.90;;;;;;5037257;28;20272;-83
2021/04/23 03:53:46;;;;;;;1999.90;999.90;;;3.40;99.90;;;;;;5037544;28;20434;-82
2021/04/23 03:56:13;;;;;;;1999.90;999.90;;;3.30;99.90;;;;;;5036842;28;20307;-82
2021/04/23 03:58:40;;;;;;;1999.90;999.90;;;3.30;99.90;;;;;;5037311;28;20198;-82
2021/04/23 04:01:10;;;;;;;1999.90;999.90;;;3.30;99.90;;;;;;5019554;28;20232;-82
2021/04/23 04:03:36;;;;;;;1999.90;999.90;;;3.20;99.90;;;;;;5019830;28;20173;-82
2021/04/23 04:06:03;;;;;;;1999.90;999.90;;;3.20;99.90;;;;;;5037612;28;20539;-83
2021/04/23 04:08:32;;;;;;;1999.90;999.90;;;3.10;99.90;;;;;;5037786;28;20203;-82
2021/04/23 04:10:59;;;;;;;1999.90;999.90;;;3.10;99.90;;;;;;5019746;28;20197;-82
2021/04/23 04:13:25;;;;;;;1999.90;999.90;;;3.20;99.90;;;;;;5020363;28;20161;-82
2021/04/23 04:15:51;;;;;;;1999.90;999.90;;;3.20;99.90;;;;;;5038052;28;20176;-82
2021/04/23 04:18:17;;;;;;;1999.90;999.90;;;3.20;99.90;;;;;;5019894;28;20619;-82
2021/04/23 04:20:46;;;;;;;1999.90;999.90;;;3.20;99.90;;;;;;5037417;28;20191;-83
2021/04/23 04:23:17;;;;;;;1999.90;999.90;;;3.20;99.90;;;;;;5036981;28;20176;-82
2021/04/23 04:25:46;;;;;;;1999.90;999.90;;;3.20;99.90;;;;;;5019923;28;20164;-82
2021/04/23 04:28:13;;;;;;;1999.90;999.90;;;3.30;99.90;;;;;;5036936;28;20188;-82
2021/04/23 04:30:40;;;;;;;1999.90;999.90;;;3.20;99.90;;;;;;5037491;28;20189;-82
2021/04/23 04:33:10;;;;;;;1999.90;999.90;;;3.20;99.90;;;;;;5038126;28;20239;-82
2021/04/23 04:35:36;;;;;;;1999.90;999.90;;;3.20;99.90;;;;;;5019668;28;20168;-82
2021/04/23 04:38:06;;;;;;;1999.90;999.90;;;3.20;99.90;;;;;;5018991;28;20209;-82
2021/04/23 04:40:33;;;;;;;1999.90;999.90;;;3.20;99.90;;;;;;5037642;28;20142;-82
2021/04/23 04:42:59;;;;;;;1999.90;999.90;;;3.20;99.90;;;;;;5037133;28;20215;-82
2021/04/23 04:45:27;;;;;;;1999.90;999.90;;;3.20;99.90;;;;;;5037455;28;20528;-82
2021/04/23 04:47:54;;;;;;;1999.90;999.90;;;3.30;99.90;;;;;;5037023;28;20423;-82
2021/04/23 04:50:47;;;;;;;1999.90;999.90;;;3.40;99.90;;;;;;5020169;28;20280;-82
2021/04/23 04:53:14;;;;;;;1999.90;999.90;;;3.40;99.90;;;;;;5031032;28;20183;-82
2021/04/23 04:55:43;;;;;;;1999.90;999.90;;;3.40;99.90;;;;;;5019449;28;20231;-82
2021/04/23 04:58:11;;;;;;;1999.90;999.90;;;3.40;99.90;;;;;;5021532;28;20315;-82
2021/04/23 05:00:38;;;;;;;1999.90;999.90;;;3.50;99.90;;;;;;5040259;28;20174;-82
2021/04/23 05:03:05;;;;;;;1999.90;999.90;;;3.60;99.90;;;;;;5040635;28;20231;-81
2021/04/23 05:05:32;;;;;;;1999.90;999.90;;;3.60;99.90;;;;;;5040574;28;20184;-82
2021/04/23 05:07:57;;;;;;;1999.90;999.90;;;3.70;99.90;;;;;;5022930;28;20418;-82
2021/04/23 05:10:24;;;;;;;1999.90;999.90;;;3.70;99.90;;;;;;5022347;28;20281;-82
2021/04/23 05:12:50;;;;;;;1999.90;999.90;;;3.70;99.90;;;;;;5040496;28;20415;-82
2021/04/23 05:15:17;;;;;;;1999.90;999.90;;;3.70;99.90;;;;;;5022752;28;20173;-82
2021/04/23 05:17:44;;;;;;;1999.90;999.90;;;3.80;99.90;;;;;;5022417;28;20533;-82
2021/04/23 05:20:11;;;;;;;1999.90;999.90;;;3.80;99.90;;;;;;5022490;28;20173;-82
2021/04/23 05:22:40;;;;;;;1999.90;999.90;;;3.80;99.90;;;;;;5040159;28;20632;-82
2021/04/23 05:25:10;;;;;;;1999.90;999.90;;;3.90;99.90;;;;;;5040034;28;20173;-82
2021/04/23 05:27:36;;;;;;;1999.90;999.90;;;3.90;99.90;;;;;;5022172;28;20197;-82
2021/04/23 05:30:08;;;;;;;1999.90;999.90;;;4.00;99.90;;;;;;5021727;28;20199;-82
2021/04/23 05:32:34;;;;;;;1999.90;999.90;;;4.10;99.90;;;;;;5040733;28;20384;-82
2021/04/23 05:35:02;;;;;;;1999.90;999.90;;;4.10;99.90;;;;;;5040366;28;20158;-80
2021/04/23 05:37:28;;;;;;;1999.90;999.90;;;4.30;99.90;;;;;;5040003;28;20679;-80
2021/04/23 05:39:54;;;;;;;1999.90;999.90;;;4.40;99.90;;;;;;5040366;28;20252;-82
2021/04/23 05:42:20;;;;;;;1999.90;999.90;;;4.60;99.90;;;;;;5039861;28;20199;-81
2021/04/23 05:44:46;;;;;;;1999.90;999.90;;;4.80;99.90;;;;;;5021311;28;20177;-82
2021/04/23 05:47:15;;;;;;;1999.90;999.90;;;4.90;99.90;;;;;;5022021;28;20443;-81
2021/04/23 05:49:40;;;;;;;1999.90;999.90;;;5.00;99.90;;;;;;5021603;28;20407;-80
2021/04/23 05:52:08;;;;;;;1999.90;999.90;;;5.10;99.90;;;;;;5021488;28;20180;-82
2021/04/23 05:54:35;;;;;;;1999.90;999.90;;;5.20;99.90;;;;;;5039998;28;20180;-82
2021/04/23 05:57:01;;;;;;;1999.90;999.90;;;5.20;99.90;;;;;;5040312;28;20177;-82
2021/04/23 05:59:27;;;;;;;1999.90;999.90;;;5.30;99.90;;;;;;5039987;28;20168;-82
2021/04/23 06:01:53;;;;;;;1999.90;999.90;;;5.40;99.90;;;;;;5039977;28;20181;-82
2021/04/23 06:04:19;;;;;;;1999.90;999.90;;;5.40;99.90;;;;;;5040252;28;20407;-82
2021/04/23 06:06:44;;;;;;;1999.90;999.90;;;5.50;99.90;;;;;;5021860;28;20225;-81
2021/04/23 06:09:11;;;;;;;1999.90;999.90;;;5.60;99.90;;;;;;5039724;28;20188;-82
2021/04/23 06:11:36;;;;;;;1999.90;999.90;;;5.70;99.90;;;;;;5021606;28;20189;-82
2021/04/23 06:14:04;;;;;;;1999.90;999.90;;;5.70;99.90;;;;;;5021397;28;20323;-82
2021/04/23 06:16:29;;;;;;;1999.90;999.90;;;5.80;99.90;;;;;;5039566;28;20428;-82
2021/04/23 06:18:56;;;;;;;1999.90;999.90;;;5.90;99.90;;;;;;5039274;28;20169;-82
2021/04/23 06:21:21;;;;;;;1999.90;999.90;;;5.90;99.90;;;;;;5021402;28;20216;-83
2021/04/23 06:23:47;;;;;;;1999.90;999.90;;;5.90;99.90;;;;;;5039141;28;20176;-82
2021/04/23 06:26:12;;;;;;;1999.90;999.90;;;6.00;99.90;;;;;;5038297;28;20165;-82
2021/04/23 06:28:38;;;;;;;1999.90;999.90;;;6.00;99.90;;;;;;5038312;28;20612;-82
2021/04/23 06:31:05;;;;;;;1999.90;999.90;;;6.10;99.90;;;;;;5038721;28;20224;-82
2021/04/23 06:33:38;;;;;;;1999.90;999.90;;;6.20;99.90;;;;;;5019755;28;20181;-82
2021/04/23 06:36:05;;;;;;;1999.90;999.90;;;6.20;99.90;;;;;;5038374;28;20168;-82
2021/04/23 06:38:31;;;;;;;1999.90;999.90;;;6.20;99.90;;;;;;5020541;28;20181;-82
2021/04/23 06:40:57;;;;;;;1999.90;999.90;;;6.20;99.90;;;;;;5040468;28;20157;-83
2021/04/23 06:43:23;;;;;;;1999.90;999.90;;;6.30;99.90;;;;;;5040797;28;20227;-82
2021/04/23 06:45:50;;;;;;;1999.90;999.90;;;6.30;99.90;;;;;;5040174;28;20173;-82
2021/04/23 06:48:17;;;;;;;1999.90;999.90;;;6.40;99.90;;;;;;5022379;28;20279;-83
2021/04/23 06:50:43;;;;;;;1999.90;999.90;;;6.50;99.90;;;;;;5039857;28;20191;-83
2021/04/23 06:53:09;;;;;;;1999.90;999.90;;;6.50;99.90;;;;;;5021457;28;20170;-82
2021/04/23 06:55:35;;;;;;;1999.90;999.90;;;6.60;99.90;;;;;;5039090;28;20165;-82
2021/04/23 06:58:00;;;;;;;1999.90;999.90;;;6.60;99.90;;;;;;5038693;28;20514;-82
2021/04/23 07:00:29;;;;;;;1999.90;999.90;;;6.70;99.90;;;;;;5020856;28;20431;-83
2021/04/23 07:02:56;;;;;;;1999.90;999.90;;;6.70;99.90;;;;;;5020366;28;20552;-82
2021/04/23 07:05:23;;;;;;;1999.90;999.90;;;6.80;99.90;;;;;;5020345;28;20182;-82
2021/04/23 07:07:49;;;;;;;1999.90;999.90;;;6.90;99.90;;;;;;5037973;28;20177;-82
2021/04/23 07:10:18;;;;;;;1999.90;999.90;;;7.00;99.90;;;;;;5037850;28;20193;-82
2021/04/23 07:12:44;;;;;;;1999.90;999.90;;;7.00;99.90;;;;;;5037777;28;20407;-82
2021/04/23 07:15:14;;;;;;;1999.90;999.90;;;7.10;99.90;;;;;;5037938;28;20161;-82
2021/04/23 07:17:40;;;;;;;1999.90;999.90;;;7.20;99.90;;;;;;5037366;28;20426;-81
2021/04/23 07:20:23;;;;;;;1999.90;999.90;;;7.20;99.90;;;;;;5036163;28;20228;-80
2021/04/23 07:22:50;;;;;;;1999.90;999.90;;;7.30;99.90;;;;;;5036051;28;20662;-82
2021/04/23 07:25:17;;;;;;;1999.90;999.90;;;7.40;99.90;;;;;;5018564;28;20591;-81
2021/04/23 07:27:43;;;;;;;1999.90;999.90;;;7.50;99.90;;;;;;5036561;28;20611;-80
2021/04/23 07:30:12;;;;;;;1999.90;999.90;;;7.50;99.90;;;;;;5035106;28;20192;-82
2021/04/23 07:32:38;;;;;;;1999.90;999.90;;;7.60;99.90;;;;;;5017336;28;20172;-82
2021/04/23 07:35:04;;;;;;;1999.90;999.90;;;7.80;99.90;;;;;;5018035;28;20532;-81
2021/04/23 07:37:30;;;;;;;1999.90;999.90;;;7.90;99.90;;;;;;5017813;28;20191;-81
2021/04/23 07:39:56;;;;;;;1999.90;999.90;;;7.90;99.90;;;;;;5017835;28;20694;-81
2021/04/23 07:42:21;;;;;;;1999.90;999.90;;;8.00;99.90;;;;;;5035580;28;20912;-81
2021/04/23 07:44:47;;;;;;;1999.90;999.90;;;8.00;99.90;;;;;;5036015;28;20177;-81
2021/04/23 07:47:13;;;;;;;1999.90;999.90;;;8.20;99.90;;;;;;5016555;28;20197;-81
2021/04/23 07:49:47;;;;;;;1999.90;999.90;;;8.20;99.90;;;;;;5034836;28;20200;-81
2021/04/23 07:52:13;;;;;;;1999.90;999.90;;;8.20;99.90;;;;;;5035933;28;20499;-80
2021/04/23 07:54:39;;;;;;;1999.90;999.90;;;8.30;99.90;;;;;;5035473;28;20208;-81
2021/04/23 07:57:05;;;;;;;1999.90;999.90;;;8.20;99.90;;;;;;5034930;28;20196;-81
2021/04/23 07:59:31;;;;;;;1999.90;999.90;;;8.30;99.90;;;;;;5035581;28;20161;-81
2021/04/23 08:01:56;;;;;;;1999.90;999.90;;;8.20;99.90;;;;;;5121686;23;20221;-85
2021/04/23 08:04:23;;;;;;;1999.90;999.90;;;8.10;99.90;;;;;;5037173;28;20185;-85
2021/04/23 08:06:48;;;;;;;1999.90;999.90;;;8.20;99.90;;;;;;5018005;28;20189;-85
2021/04/23 08:09:14;;;;;;;1999.90;999.90;;;8.10;99.90;;;;;;5018599;28;20169;-85
2021/04/23 08:11:40;;;;;;;1999.90;999.90;;;8.00;99.70;;;;;;5035829;28;20224;-85
2021/04/23 08:14:09;;;;;;;1999.90;999.90;;;8.10;99.90;;;;;;5018747;28;20165;-85
2021/04/23 08:16:35;;;;;;;1999.90;999.90;;;8.30;99.90;;;;;;5036708;28;20184;-85
2021/04/23 08:19:01;;;;;;;1999.90;999.90;;;8.40;99.20;;;;;;5036717;28;20165;-84
2021/04/23 08:21:27;;;;;;;1999.90;999.90;;;8.40;98.00;;;;;;5019416;28;20419;-85
2021/04/23 08:23:53;;;;;;;1999.90;999.90;;;8.40;97.50;;;;;;5036734;28;20180;-85
2021/04/23 08:26:19;;;;;;;1999.90;999.90;;;8.40;96.70;;;;;;5018895;28;20196;-86
2021/04/23 08:28:45;;;;;;;1999.90;999.90;;;8.40;96.30;;;;;;5035540;28;20165;-85
2021/04/23 08:31:11;;;;;;;1999.90;999.90;;;8.40;97.80;;;;;;5036239;28;20188;-85
2021/04/23 08:33:37;;;;;;;1999.90;999.90;;;8.40;98.50;;;;;;5041570;28;20918;-86
2021/04/23 08:36:03;;;;;;;1999.90;999.90;;;8.50;96.40;;;;;;5025162;28;20165;-85
2021/04/23 08:38:32;;;;;;;1999.90;999.90;;;8.40;96.10;;;;;;5041496;28;20271;-85
2021/04/23 08:40:58;;;;;;;1999.90;999.90;;;8.50;96.00;;;;;;5042301;28;20234;-86
2021/04/23 08:43:25;;;;;;;1999.90;999.90;;;8.50;94.00;;;;;;5043435;28;20175;-86
2021/04/23 08:45:51;;;;;;;1999.90;999.90;;;8.50;94.60;;;;;;5024757;28;20179;-86
2021/04/23 08:48:20;;;;;;;1999.90;999.90;;;8.50;96.20;;;;;;5042464;28;20196;-85
2021/04/23 08:50:46;;;;;;;1999.90;999.90;;;8.70;95.30;;;;;;5042506;28;20596;-86
2021/04/23 08:53:12;;;;;;;1999.90;999.90;;;8.60;96.10;;;;;;5039940;28;20524;-85
2021/04/23 08:55:42;;;;;;;1999.90;999.90;;;8.60;95.90;;;;;;5040635;28;20169;-85
2021/04/23 08:58:08;;;;;;;1999.90;999.90;;;8.70;97.00;;;;;;5038460;28;20474;-84
2021/04/23 09:00:34;;;;;;;1999.90;999.90;;;8.80;95.70;;;;;;5039118;28;20172;-85
2021/04/23 09:03:00;;;;;;;1999.90;999.90;;;8.80;94.30;;;;;;5038635;28;20563;-86
2021/04/23 09:05:25;;;;;;;1999.90;999.90;;;8.90;94.60;;;;;;5021302;28;20172;-85
2021/04/23 09:08:08;;;;;;;1999.90;999.90;;;8.90;93.50;;;;;;5039354;28;20455;-85
2021/04/23 09:10:38;;;;;;;1999.90;999.90;;;8.90;95.10;;;;;;5039300;28;20220;-85
2021/04/23 09:13:07;;;;;;;1999.90;999.90;;;9.00;94.90;;;;;;5022017;28;20173;-85
2021/04/23 09:15:34;;;;;;;1999.90;999.90;;;9.10;94.20;;;;;;5040408;28;20172;-85
2021/04/23 09:18:04;;;;;;;1999.90;999.90;;;9.20;94.00;;;;;;5039221;28;20224;-85
2021/04/23 09:20:30;;;;;;;1999.90;999.90;;;9.30;93.40;;;;;;5039565;28;20165;-85
2021/04/23 09:23:16;;;;;;;1999.90;999.90;;;9.30;92.50;;;;;;5039673;28;20243;-85
2021/04/23 09:25:56;;;;;;;1999.90;999.90;;;9.50;91.00;;;;;;5021655;28;20640;-85
2021/04/23 09:28:43;;;;;;;1999.90;999.90;;;9.50;90.00;;;;;;5039896;28;20189;-86
2021/04/23 09:31:41;;;;;;;1999.90;999.90;;;9.50;83.40;;;;;;5038705;28;20177;-86
2021/04/23 09:34:08;;;;;;;1999.90;999.90;;;9.70;81.90;;;;;;5005709;28;20188;-86
2021/04/23 09:36:44;;;;;;;1999.90;999.90;;;9.70;80.50;;;;;;5038315;28;20744;-86
2021/04/23 09:39:22;;;;;;;1999.90;999.90;;;9.70;75.70;;;;;;5040293;28;20157;-86
2021/04/23 09:42:00;;;;;;;1999.90;999.90;;;9.50;68.60;;;;;;5039867;28;20168;-85
2021/04/23 09:44:33;;;;;;;1999.90;999.90;;;9.60;74.30;;;;;;5038433;28;20688;-86
2021/04/23 09:47:05;;;;;;;1999.90;999.90;;;9.90;73.00;;;;;;5021072;28;20197;-86
2021/04/23 09:49:31;;;;;;;1999.90;999.90;;;10.20;62.00;;;;;;5039219;28;20571;-86
2021/04/23 09:51:56;;;;;;;1999.90;999.90;;;10.30;56.30;;;;;;5040729;28;20200;-86
2021/04/23 09:54:24;;;;;;;1999.90;999.90;;;10.60;57.70;;;;;;5041076;28;20544;-86
2021/04/23 09:56:52;;;;;;;1999.90;999.90;;;10.70;50.40;;;;;;5020561;28;20423;-86
2021/04/23 09:59:29;;;;;;;1999.90;999.90;;;10.80;49.80;;;;;;5038871;28;20157;-86
2021/04/23 10:02:04;;;;;;;1999.90;999.90;;;11.00;52.60;;;;;;5020157;28;20277;-85
2021/04/23 10:04:33;;;;;;;1999.90;999.90;;;11.10;42.90;;;;;;5037156;28;20160;-86
2021/04/23 10:07:09;;;;;;;1999.90;999.90;;;11.30;43.00;;;;;;5036361;28;20565;-85
2021/04/23 10:09:45;;;;;;;1999.90;999.90;;;11.50;32.20;;;;;;5018846;28;20164;-86
2021/04/23 10:12:11;;;;;;;1999.90;999.90;;;11.50;23.60;;;;;;5036243;28;20161;-87
2021/04/23 10:14:36;;;;;;;1999.90;999.90;;;11.50;20.40;;;;;;5035870;28;20682;-86
2021/04/23 10:17:03;;;;;;;1999.90;999.90;;;11.50;17.10;;;;;;5036376;28;20271;-86
2021/04/23 10:19:28;;;;;;;1999.90;999.90;;;11.70;19.90;;;;;;5036648;28;20162;-86
2021/04/23 10:21:54;;;;;;;1999.90;999.90;;;11.70;14.10;;;;;;5036441;28;20219;-86
2021/04/23 10:24:23;;;;;;;1999.90;999.90;;;11.90;19.00;;;;;;5019210;28;20930;-86
2021/04/23 10:26:53;;;;;;;1999.90;999.90;;;12.20;14.10;;;;;;5037318;28;20430;-86
2021/04/23 10:29:28;;;;;;;1999.90;999.90;;;12.40;10.80;;;;;;5019217;28;20173;-85
2021/04/23 10:31:54;;;;;;;1999.90;999.90;;;12.70;11.40;;;;;;5018192;28;20242;-86
2021/04/23 10:34:20;;;;;;;1999.90;999.90;;;13.00;12.00;;;;;;5018597;28;20568;-86
2021/04/23 10:37:04;;;;;;;;;;;;;;;;;;;;;
2021/04/23 10:39:37;;;;;;;1999.90;999.90;;;13.40;7.00;;;;;;5036436;28;20168;-86
2021/04/23 10:42:10;;;;;;;1999.90;999.90;;;13.60;5.10;;;;;;5035857;28;20141;-86
2021/04/23 10:45:02;;;;;;;1999.90;999.90;;;13.50;6.60;;;;;;5018525;28;20202;-87
2021/04/23 10:47:40;;;;;;;1999.90;999.90;;;14.10;5.50;;;;;;5035699;28;20195;-86
2021/04/23 10:50:18;;;;;;;1999.90;999.90;;;14.20;6.20;;;;;;5035950;28;20188;-86
2021/04/23 10:53:05;;;;;;;1999.90;999.90;;;14.40;3.80;;;;;;5035343;28;20629;-87
2021/04/23 10:55:54;;;;;;;1999.90;999.90;;;14.60;2.60;;;;;;5034973;28;20157;-87
2021/04/23 10:58:26;;;;;;;1999.90;999.90;;;14.40;1.60;;;;;;5034963;28;20235;-86
2021/04/23 11:00:54;;;;;;;1999.90;999.90;;;14.50;2.60;;;;;;5035243;28;20260;-87
2021/04/23 11:03:27;;;;;;;1999.90;999.90;;;14.70;2.10;;;;;;5034744;28;20268;-85
2021/04/23 11:06:13;;;;;;;1999.90;999.90;;;14.80;1.00;;;;;;5034870;28;20648;-86
2021/04/23 11:09:01;;;;;;;1999.90;999.90;;;14.60;1.00;;;;;;5033258;28;20177;-86
2021/04/23 11:11:27;;;;;;;1999.90;999.90;;;14.70;1.00;;;;;;5034622;28;20558;-86
2021/04/23 11:14:43;;;;;;;1999.90;999.90;;;14.80;1.00;;;;;;5035220;28;20164;-88
2021/04/23 11:17:33;;;;;;;1999.90;999.90;;;14.90;1.00;;;;;;4998123;28;20871;-87
2021/04/23 11:20:00;;;;;;;1999.90;999.90;;;15.00;1.00;;;;;;5036917;28;20177;-87
2021/04/23 11:22:30;;;;;;;1999.90;999.90;;;15.20;1.00;;;;;;5037141;28;20462;-87
2021/04/23 11:25:15;;;;;;;1999.90;999.90;;;15.40;1.00;;;;;;5020258;28;20550;-86
2021/04/23 11:27:59;;;;;;;1999.90;999.90;;;15.70;1.00;;;;;;5036909;28;20442;-87
2021/04/23 11:30:26;;;;;;;1999.90;999.90;;;15.20;1.00;;;;;;5019718;28;20447;-87
2021/04/23 11:32:54;;;;;;;1999.90;999.90;;;15.10;1.00;;;;;;5038909;28;20429;-87
2021/04/23 11:35:24;;;;;;;1999.90;999.90;;;15.40;1.00;;;;;;5037115;28;20407;-87
2021/04/23 11:37:56;;;;;;;1999.90;999.90;;;15.40;1.00;;;;;;5036589;28;20779;-87
2021/04/23 11:40:30;;;;;;;1999.90;999.90;;;15.40;1.00;;;;;;5018424;28;21000;-87
2021/04/23 11:43:37;;;;;;;1999.90;999.90;;;15.40;1.00;;;;;;5036376;28;20411;-87
2021/04/23 11:46:03;;;;;;;1999.90;999.90;;;15.60;1.00;;;;;;5037342;28;20495;-87
2021/04/23 11:48:29;;;;;;;1999.90;999.90;;;15.80;1.00;;;;;;5019034;28;20462;-87
2021/04/23 11:51:03;;;;;;;1999.90;999.90;;;16.00;1.00;;;;;;5018885;28;20451;-87
2021/04/23 11:53:29;;;;;;;1999.90;999.90;;;15.90;1.00;;;;;;5036732;28;20380;-87
2021/04/23 11:55:54;;;;;;;1999.90;999.90;;;15.80;1.00;;;;;;5018963;28;20401;-87
2021/04/23 11:58:22;;;;;;;1999.90;999.90;;;15.60;1.00;;;;;;5036498;28;20184;-87
2021/04/23 12:00:58;;;;;;;1999.90;999.90;;;15.60;1.00;;;;;;5038373;28;20173;-86
2021/04/23 12:03:24;;;;;;;1999.90;999.90;;;15.80;1.00;;;;;;5036080;28;20423;-86
2021/04/23 12:05:58;;;;;;;1999.90;999.90;;;16.10;1.00;;;;;;5033408;28;20385;-86
2021/04/23 12:08:27;;;;;;;1999.90;999.90;;;16.20;1.00;;;;;;5015845;28;20443;-86
2021/04/23 12:10:59;;;;;;;1999.90;999.90;;;16.00;1.00;;;;;;5033715;28;20448;-86
2021/04/23 12:13:30;;;;;;;1999.90;999.90;;;16.10;1.00;;;;;;5033457;28;20495;-87
2021/04/23 12:15:59;;;;;;;1999.90;999.90;;;16.00;1.00;;;;;;5033907;28;20383;-87
2021/04/23 12:18:25;;;;;;;1999.90;999.90;;;16.00;1.00;;;;;;5033126;28;20446;-86